Ibra, Oman
Current Conditions -  °F | °C
As of 10:50 AM on Saturday 29 Nov 2014 (Local Time) from OOMS Reporting Station
Clear Clear  
Wind Chill: 31°   Ceiling: Unl
Heat Index: 31°   Visibility: 6mi
Dew Point: 13°   Wind: 7mph
Humidity: 33%   Direction: 280°W
Pressure: 29.97"   Gusts: NA
Location:  22.72°N, 58.53°E
Report Text: OOMS 290650Z 28006KT 210V350 CAVOK 31/13 Q1015 NOSIG
Loading
Personal Weather Stations






























Interactive Weather Map New forecast layout! Learn more

10-Day Weather Forecast

Advertisements
Track Severe Weather on mobile